createdAt,value
2018-11-05T00:00:59.433Z,68.30
2018-11-05T00:09:20.417Z,67.58
2018-11-05T00:17:41.395Z,68.54
2018-11-05T00:26:02.393Z,68.69
2018-11-05T00:34:23.408Z,68.11
2018-11-05T00:42:44.432Z,67.91
2018-11-05T00:51:05.456Z,68.57
2018-11-05T00:59:26.583Z,68.59
2018-11-05T01:07:47.580Z,68.62
2018-11-05T01:16:08.584Z,67.94
2018-11-05T01:24:29.596Z,68.43
2018-11-05T01:32:50.574Z,68.69
2018-11-05T01:41:11.669Z,68.85
2018-11-05T01:49:32.674Z,67.84
2018-11-05T01:57:53.673Z,68.28
2018-11-05T02:06:14.688Z,68.42
2018-11-05T02:14:35.696Z,68.68
2018-11-05T02:22:56.681Z,68.15
2018-11-05T02:31:17.663Z,68.68
2018-11-05T02:39:38.669Z,68.99
2018-11-05T02:47:59.658Z,69.03
2018-11-05T02:56:20.759Z,69.35
2018-11-05T03:04:41.763Z,69.13
2018-11-05T03:13:02.947Z,69.18
2018-11-05T03:21:23.964Z,69.61
2018-11-05T03:29:44.964Z,69.26
2018-11-05T03:38:05.968Z,69.26
2018-11-05T03:46:26.965Z,68.59
2018-11-05T03:54:47.970Z,68.92
2018-11-05T04:03:09.096Z,69.32
2018-11-05T04:11:30.076Z,69.29
2018-11-05T04:19:51.081Z,69.32
2018-11-05T04:28:12.103Z,69.49
2018-11-05T04:36:33.105Z,69.84
2018-11-05T04:44:54.133Z,69.71
2018-11-05T04:53:15.132Z,69.00
2018-11-05T05:01:36.152Z,69.20
2018-11-05T05:09:57.138Z,69.93
2018-11-05T05:18:18.157Z,69.74
2018-11-05T05:26:39.180Z,70.67
2018-11-05T05:35:00.220Z,70.27
2018-11-05T05:43:21.220Z,70.58
2018-11-05T05:51:42.240Z,70.98
2018-11-05T06:00:03.410Z,70.60
2018-11-05T06:08:24.476Z,70.16
2018-11-05T06:16:45.509Z,70.69
2018-11-05T06:25:06.528Z,70.41
2018-11-05T06:33:27.612Z,69.80
2018-11-05T06:41:48.677Z,70.34
2018-11-05T06:50:09.602Z,72.77
2018-11-05T06:58:30.583Z,71.75
2018-11-05T07:06:51.584Z,73.45
2018-11-05T07:15:12.585Z,72.93
2018-11-05T07:23:33.585Z,73.85
2018-11-05T07:31:54.589Z,72.89
2018-11-05T07:40:15.624Z,71.75
2018-11-05T07:48:36.705Z,72.40
2018-11-05T07:56:57.827Z,72.01
2018-11-05T08:05:18.737Z,72.17
2018-11-05T08:13:39.737Z,69.19
2018-11-05T08:22:00.745Z,66.44
2018-11-05T08:30:21.773Z,65.81
2018-11-05T08:38:42.799Z,65.15
2018-11-05T08:47:03.810Z,65.54
2018-11-05T08:55:24.798Z,65.68
2018-11-05T09:03:45.777Z,65.63
2018-11-05T09:12:06.850Z,65.66
2018-11-05T09:20:28.125Z,66.27
2018-11-05T09:28:49.161Z,66.97
2018-11-05T09:37:10.138Z,66.73
2018-11-05T09:45:31.141Z,66.79
2018-11-05T09:53:52.355Z,65.33
2018-11-05T10:02:13.378Z,64.84
2018-11-05T10:10:34.440Z,64.95
2018-11-05T10:18:55.710Z,63.34
2018-11-05T10:27:16.758Z,64.52
2018-11-05T10:35:37.821Z,63.86
2018-11-05T10:43:59.019Z,64.56
2018-11-05T10:52:20.138Z,64.76
2018-11-05T11:00:41.177Z,63.79
2018-11-05T11:09:02.268Z,63.42
2018-11-05T11:17:23.278Z,61.67
2018-11-05T11:25:44.369Z,61.54
2018-11-05T11:34:05.491Z,61.27
2018-11-05T11:42:26.591Z,60.92
2018-11-05T11:50:47.671Z,58.92
2018-11-05T11:59:08.743Z,57.28
2018-11-05T12:07:29.763Z,55.45
2018-11-05T12:15:51.096Z,52.67
2018-11-05T12:24:12.083Z,52.15
2018-11-05T12:32:33.066Z,51.29
2018-11-05T12:40:54.088Z,47.80
2018-11-05T12:49:15.206Z,47.05
2018-11-05T12:57:36.270Z,43.84
2018-11-05T13:05:57.273Z,42.97
2018-11-05T13:14:18.262Z,44.88
2018-11-05T13:22:39.339Z,42.61
2018-11-05T13:31:00.302Z,41.29
2018-11-05T13:39:21.328Z,40.19
2018-11-05T13:47:42.937Z,40.75
2018-11-05T13:56:03.348Z,41.91
2018-11-05T14:04:24.372Z,46.85
2018-11-05T14:12:45.441Z,47.53
2018-11-05T14:21:06.426Z,49.84
2018-11-05T14:29:27.747Z,51.83
2018-11-05T14:37:48.438Z,53.13
2018-11-05T14:46:09.530Z,54.46
2018-11-05T14:54:30.536Z,57.14
2018-11-05T15:02:51.563Z,57.72
2018-11-05T15:11:12.663Z,58.83
2018-11-05T15:19:34.065Z,60.48
2018-11-05T15:27:54.714Z,60.74
2018-11-05T15:36:15.741Z,62.91
2018-11-05T15:44:36.764Z,62.92
2018-11-05T15:52:58.292Z,64.61
2018-11-05T16:01:18.801Z,64.74
2018-11-05T16:09:39.829Z,64.72
2018-11-05T16:18:00.810Z,66.28
2018-11-05T16:26:21.802Z,65.49
2018-11-05T16:34:42.843Z,65.40
2018-11-05T16:43:03.809Z,66.18
2018-11-05T16:51:24.789Z,65.85
2018-11-05T16:59:45.841Z,65.55
2018-11-05T17:08:06.865Z,66.05
2018-11-05T17:16:28.962Z,66.62
2018-11-05T17:24:49.978Z,67.83
2018-11-05T17:33:10.963Z,66.72
2018-11-05T17:41:31.960Z,67.29
2018-11-05T17:49:53.030Z,66.78
2018-11-05T17:58:14.018Z,67.70
2018-11-05T18:06:35.128Z,67.57
2018-11-05T18:14:56.261Z,67.95
2018-11-05T18:23:17.282Z,67.73
2018-11-05T18:31:38.883Z,67.44
2018-11-05T18:39:59.922Z,68.94
2018-11-05T18:48:20.926Z,67.84
2018-11-05T18:56:42.032Z,68.19
2018-11-05T19:05:03.010Z,67.86
2018-11-05T19:13:24.033Z,68.78
2018-11-05T19:21:45.144Z,68.67
2018-11-05T19:30:06.197Z,69.05
2018-11-05T19:38:27.201Z,68.01
2018-11-05T19:46:48.187Z,69.43
2018-11-05T19:55:09.169Z,68.71
2018-11-05T20:03:30.176Z,68.78
2018-11-05T20:11:51.212Z,69.01
2018-11-05T20:20:12.319Z,68.59
2018-11-05T20:28:33.557Z,68.93
2018-11-05T20:36:54.418Z,69.13
2018-11-05T20:45:15.421Z,69.26
2018-11-05T20:53:36.461Z,69.83
2018-11-05T21:01:57.441Z,69.74
2018-11-05T21:10:18.472Z,69.48
2018-11-05T21:18:39.500Z,69.80
2018-11-05T21:27:00.555Z,68.83
2018-11-05T21:35:21.514Z,69.01
2018-11-05T21:43:42.516Z,69.27
2018-11-05T21:52:03.554Z,69.84
2018-11-05T22:00:24.561Z,69.27
2018-11-05T22:08:45.564Z,69.30
2018-11-05T22:17:06.579Z,69.26
2018-11-05T22:25:27.697Z,70.42
2018-11-05T22:33:48.724Z,70.31
2018-11-05T22:42:09.745Z,70.56
2018-11-05T22:50:30.756Z,70.61
2018-11-05T22:58:51.727Z,69.17
2018-11-05T23:07:12.794Z,70.03
2018-11-05T23:15:33.778Z,69.92
2018-11-05T23:23:54.891Z,69.61
2018-11-05T23:32:15.909Z,69.75
2018-11-05T23:40:37.092Z,69.85
2018-11-05T23:48:58.130Z,69.99
2018-11-05T23:57:19.110Z,69.81
